Old London, Texas
Current Conditions -  °F | °C
As of 6:15 PM on Thursday 27 Nov 2014 (Local Time) from KRFI Reporting Station
Clear Clear  
Wind Chill: 46°   Ceiling: Unl
Heat Index: 46°   Visibility: 10mi
Dew Point: 32°   Wind: 0mph
Humidity: 58%   Direction: NA
Pressure: 30.44"   Gusts: NA
Location:  32.2538°N, 94.9427°W
Report Text: KRFI 280015Z AUTO 00000KT 10SM CLR 08/00 A3044 RMK AO2 T00780000
Loading
Personal Weather Stations






























Interactive Weather Map New forecast layout! Learn more

10-Day Weather Forecast

Advertisements
Track Severe Weather on mobile